createdAt,value
2017-05-19T00:01:10.717Z,1004.87
2017-05-19T00:02:10.542Z,1004.81
2017-05-19T00:03:10.481Z,1004.82
2017-05-19T00:04:10.418Z,1004.79
2017-05-19T00:05:10.357Z,1004.8
2017-05-19T00:06:10.306Z,1004.85
2017-05-19T00:07:10.236Z,1004.82
2017-05-19T00:08:10.174Z,1004.8
2017-05-19T00:09:10.126Z,1004.78
2017-05-19T00:10:10.053Z,1004.83
2017-05-19T00:11:09.991Z,1004.79
2017-05-19T00:12:09.930Z,1004.84
2017-05-19T00:13:09.870Z,1004.84
2017-05-19T00:14:09.808Z,1004.81
2017-05-19T00:15:09.757Z,1004.79
2017-05-19T00:16:09.685Z,1004.78
2017-05-19T00:17:09.624Z,1004.77
2017-05-19T00:18:09.564Z,1004.83
2017-05-19T00:19:09.506Z,1004.81
2017-05-19T00:20:09.441Z,1004.77
2017-05-19T00:21:09.379Z,1004.77
2017-05-19T00:22:09.318Z,1004.75
2017-05-19T00:23:09.257Z,1004.75
2017-05-19T00:24:09.196Z,1004.76
2017-05-19T00:25:09.135Z,1004.71
2017-05-19T00:26:09.079Z,1004.68
2017-05-19T00:27:09.013Z,1004.71
2017-05-19T00:28:08.951Z,1004.64
2017-05-19T00:29:08.891Z,1004.7
2017-05-19T00:30:08.830Z,1004.67
2017-05-19T00:31:08.768Z,1004.67
2017-05-19T00:32:08.707Z,1004.65
2017-05-19T00:33:08.671Z,1004.68
2017-05-19T00:34:08.585Z,1004.64
2017-05-19T00:35:08.524Z,1004.65
2017-05-19T00:36:08.462Z,1004.63
2017-05-19T00:37:08.400Z,1004.64
2017-05-19T00:38:08.339Z,1004.6
2017-05-19T00:39:08.278Z,1004.6
2017-05-19T00:40:08.219Z,1004.56
2017-05-19T00:41:08.156Z,1004.56
2017-05-19T00:42:08.099Z,1004.57
2017-05-19T00:43:08.033Z,1004.57
2017-05-19T00:44:07.974Z,1004.55
2017-05-19T00:45:07.912Z,1004.52
2017-05-19T00:46:07.851Z,1004.54
2017-05-19T00:47:07.790Z,1004.53
2017-05-19T00:48:07.729Z,1004.51
2017-05-19T00:49:07.667Z,1004.48
2017-05-19T00:50:07.606Z,1004.46
2017-05-19T00:51:07.546Z,1004.48
2017-05-19T00:52:07.484Z,1004.48
2017-05-19T00:53:07.422Z,1004.47
2017-05-19T00:54:07.362Z,1004.47
2017-05-19T00:55:07.303Z,1004.5
2017-05-19T00:56:07.240Z,1004.45
2017-05-19T00:57:07.178Z,1004.48
2017-05-19T00:58:07.117Z,1004.49
2017-05-19T00:59:07.057Z,1004.47
2017-05-19T01:00:07.020Z,1004.45
2017-05-19T01:01:06.934Z,1004.44
2017-05-19T01:02:06.874Z,1004.46
2017-05-19T01:03:06.811Z,1004.44
2017-05-19T01:04:06.750Z,1004.44
2017-05-19T01:05:06.692Z,1004.42
2017-05-19T01:06:06.627Z,1004.44
2017-05-19T01:07:06.565Z,1004.41
2017-05-19T01:08:06.755Z,1004.47
2017-05-19T01:09:06.444Z,1004.45
2017-05-19T01:10:06.382Z,1004.48
2017-05-19T01:11:06.321Z,1004.45
2017-05-19T01:12:06.261Z,1004.52
2017-05-19T01:13:06.200Z,1004.53
2017-05-19T01:14:06.138Z,1004.58
2017-05-19T01:15:06.088Z,1004.62
2017-05-19T01:16:06.016Z,1004.63
2017-05-19T01:17:05.953Z,1004.65
2017-05-19T01:18:05.893Z,1004.66
2017-05-19T01:19:05.833Z,1004.68
2017-05-19T01:20:05.770Z,1004.69
2017-05-19T01:21:05.711Z,1004.67
2017-05-19T01:22:05.648Z,1004.72
2017-05-19T01:23:05.586Z,1004.68
2017-05-19T01:24:05.526Z,1004.72
2017-05-19T01:25:05.464Z,1004.73
2017-05-19T01:26:05.403Z,1004.75
2017-05-19T01:27:05.341Z,1004.8
2017-05-19T01:28:05.288Z,1004.8
2017-05-19T01:29:05.219Z,1004.82
2017-05-19T01:30:05.307Z,1004.82
2017-05-19T01:31:05.097Z,1004.84
2017-05-19T01:32:05.034Z,1004.83
2017-05-19T01:33:04.976Z,1004.91
2017-05-19T01:34:04.912Z,1004.9
2017-05-19T01:35:05.116Z,1004.91
2017-05-19T01:36:04.790Z,1004.9
2017-05-19T01:37:04.730Z,1004.9
2017-05-19T01:38:04.670Z,1004.89
2017-05-19T01:39:04.607Z,1004.92
2017-05-19T01:40:04.546Z,1004.88
2017-05-19T01:41:04.483Z,1004.9
2017-05-19T01:42:04.423Z,1004.88
2017-05-19T01:43:04.361Z,1004.92
2017-05-19T01:44:04.305Z,1004.89
2017-05-19T01:45:04.240Z,1004.89
2017-05-19T01:46:04.177Z,1004.9
2017-05-19T01:47:04.116Z,1004.92
2017-05-19T01:48:04.059Z,1004.89
2017-05-19T01:49:03.994Z,1004.88
2017-05-19T01:50:03.932Z,1004.89
2017-05-19T01:51:03.872Z,1004.87
2017-05-19T01:52:03.810Z,1004.89
2017-05-19T01:53:03.748Z,1004.89
2017-05-19T01:54:03.687Z,1004.86
2017-05-19T01:55:03.625Z,1004.87
2017-05-19T01:56:03.564Z,1004.83
2017-05-19T01:57:03.502Z,1004.84
2017-05-19T01:58:03.441Z,1004.82
2017-05-19T01:59:03.381Z,1004.82
2017-05-19T02:00:03.320Z,1004.8
2017-05-19T02:01:03.257Z,1004.8
2017-05-19T02:02:03.202Z,1004.8
2017-05-19T02:03:03.135Z,1004.78
2017-05-19T02:04:03.074Z,1004.8
2017-05-19T02:05:03.011Z,1004.8
2017-05-19T02:06:02.952Z,1004.83
2017-05-19T02:07:02.889Z,1004.81
2017-05-19T02:08:02.828Z,1004.8
2017-05-19T02:09:02.767Z,1004.81
2017-05-19T02:10:02.955Z,1004.76
2017-05-19T02:11:02.644Z,1004.76
2017-05-19T02:12:02.582Z,1004.8
2017-05-19T02:13:02.521Z,1004.77
2017-05-19T02:14:02.460Z,1004.78
2017-05-19T02:15:02.647Z,1004.79
2017-05-19T02:16:02.336Z,1004.78
2017-05-19T02:17:02.275Z,1004.79
2017-05-19T02:18:02.214Z,1004.79
2017-05-19T02:19:02.151Z,1004.76
2017-05-19T02:20:02.091Z,1004.78
2017-05-19T02:21:02.030Z,1004.79
2017-05-19T02:22:01.968Z,1004.78
2017-05-19T02:23:01.906Z,1004.74
2017-05-19T02:24:01.846Z,1004.72
2017-05-19T02:25:01.784Z,1004.67
2017-05-19T02:26:01.724Z,1004.72
2017-05-19T02:27:01.661Z,1004.71
2017-05-19T02:28:01.599Z,1004.68
2017-05-19T02:29:01.539Z,1004.66
2017-05-19T02:30:01.479Z,1004.68
2017-05-19T02:31:01.617Z,1004.64
2017-05-19T02:32:01.355Z,1004.65
2017-05-19T02:33:01.293Z,1004.63
2017-05-19T02:34:01.231Z,1004.64
2017-05-19T02:35:01.171Z,1004.61
2017-05-19T02:36:01.117Z,1004.67
2017-05-19T02:37:01.048Z,1004.69
2017-05-19T02:38:00.986Z,1004.69
2017-05-19T02:39:00.925Z,1004.65
2017-05-19T02:40:00.864Z,1004.7
2017-05-19T02:41:00.801Z,1004.68
2017-05-19T02:42:00.740Z,1004.7
2017-05-19T02:43:00.696Z,1004.67
2017-05-19T02:44:00.617Z,1004.66
2017-05-19T02:45:00.555Z,1004.64
2017-05-19T02:46:00.496Z,1004.66
2017-05-19T02:47:00.487Z,1004.68
2017-05-19T02:48:00.376Z,1004.67
2017-05-19T02:49:00.313Z,1004.68
2017-05-19T02:50:00.275Z,1004.71
2017-05-19T02:51:00.189Z,1004.71
2017-05-19T02:52:00.126Z,1004.68
2017-05-19T02:53:00.065Z,1004.69
2017-05-19T02:54:00.004Z,1004.64
2017-05-19T02:54:59.942Z,1004.67
2017-05-19T02:55:59.880Z,1004.63
2017-05-19T02:56:59.819Z,1004.64
2017-05-19T02:57:59.758Z,1004.63
2017-05-19T02:58:59.697Z,1004.61
2017-05-19T02:59:59.636Z,1004.59
2017-05-19T03:00:59.582Z,1004.62
2017-05-19T03:01:59.512Z,1004.59
2017-05-19T03:02:59.451Z,1004.59
2017-05-19T03:03:59.389Z,1004.57
2017-05-19T03:04:59.331Z,1004.55
2017-05-19T03:05:59.268Z,1004.55
2017-05-19T03:06:59.215Z,1004.52
2017-05-19T03:07:59.145Z,1004.53
2017-05-19T03:08:59.083Z,1004.53
2017-05-19T03:09:59.022Z,1004.47
2017-05-19T03:10:58.960Z,1004.52
2017-05-19T03:11:58.899Z,1004.5
2017-05-19T03:12:58.838Z,1004.54
2017-05-19T03:13:58.775Z,1004.53
2017-05-19T03:14:58.716Z,1004.49
2017-05-19T03:15:58.655Z,1004.5
2017-05-19T03:16:58.593Z,1004.54
2017-05-19T03:17:58.530Z,1004.49
2017-05-19T03:18:58.469Z,1004.52
2017-05-19T03:19:58.407Z,1004.54
2017-05-19T03:20:58.347Z,1004.54
2017-05-19T03:21:58.284Z,1004.52
2017-05-19T03:22:58.224Z,1004.51
2017-05-19T03:23:58.164Z,1004.54
2017-05-19T03:24:58.100Z,1004.49
2017-05-19T03:25:58.039Z,1004.55
2017-05-19T03:26:57.978Z,1004.54
2017-05-19T03:27:57.917Z,1004.53
2017-05-19T03:28:57.854Z,1004.47
2017-05-19T03:29:57.793Z,1004.51
2017-05-19T03:30:57.732Z,1004.52
2017-05-19T03:31:57.670Z,1004.5
2017-05-19T03:32:57.609Z,1004.48
2017-05-19T03:33:57.549Z,1004.41
2017-05-19T03:34:57.486Z,1004.45
2017-05-19T03:35:57.424Z,1004.43
2017-05-19T03:36:57.363Z,1004.39
2017-05-19T03:37:57.301Z,1004.41
2017-05-19T03:38:57.240Z,1004.4
2017-05-19T03:39:57.179Z,1004.42
2017-05-19T03:40:57.117Z,1004.41
2017-05-19T03:41:57.056Z,1004.41
2017-05-19T03:42:56.994Z,1004.4
2017-05-19T03:43:56.934Z,1004.38
2017-05-19T03:44:56.873Z,1004.36
2017-05-19T03:45:56.810Z,1004.33
2017-05-19T03:46:56.749Z,1004.36
2017-05-19T03:47:56.692Z,1004.43
2017-05-19T03:48:56.625Z,1004.41
2017-05-19T03:49:56.566Z,1004.48
2017-05-19T03:50:56.504Z,1004.49
2017-05-19T03:51:56.444Z,1004.55
2017-05-19T03:52:56.381Z,1004.56
2017-05-19T03:53:56.318Z,1004.6
2017-05-19T03:54:56.257Z,1004.6
2017-05-19T03:55:56.196Z,1004.59
2017-05-19T03:56:56.133Z,1004.6
2017-05-19T03:57:56.072Z,1004.58
2017-05-19T03:58:56.010Z,1004.55
2017-05-19T03:59:55.949Z,1004.56
2017-05-19T04:00:55.888Z,1004.53
2017-05-19T04:01:55.826Z,1004.56
2017-05-19T04:02:55.764Z,1004.59
2017-05-19T04:03:55.703Z,1004.61
2017-05-19T04:04:55.641Z,1004.59
2017-05-19T04:05:55.580Z,1004.65
2017-05-19T04:06:55.520Z,1004.63
2017-05-19T04:07:55.458Z,1004.64
2017-05-19T04:08:55.396Z,1004.68
2017-05-19T04:09:55.334Z,1004.71
2017-05-19T04:10:55.273Z,1004.68
2017-05-19T04:11:55.212Z,1004.61
2017-05-19T04:12:55.148Z,1004.65
2017-05-19T04:13:55.088Z,1004.63
2017-05-19T04:14:55.027Z,1004.64
2017-05-19T04:15:54.965Z,1004.62
2017-05-19T04:16:54.903Z,1004.62
2017-05-19T04:17:54.842Z,1004.57
2017-05-19T04:18:54.782Z,1004.58
2017-05-19T04:19:54.719Z,1004.59
2017-05-19T04:20:54.659Z,1004.57
2017-05-19T04:21:54.597Z,1004.57
2017-05-19T04:22:54.536Z,1004.56
2017-05-19T04:23:54.473Z,1004.58
2017-05-19T04:24:54.412Z,1004.58
2017-05-19T04:25:54.351Z,1004.59
2017-05-19T04:26:54.288Z,1004.59
2017-05-19T04:27:54.227Z,1004.64
2017-05-19T04:28:54.167Z,1004.63
2017-05-19T04:29:54.105Z,1004.64
2017-05-19T04:30:54.042Z,1004.65
2017-05-19T04:31:53.981Z,1004.67
2017-05-19T04:32:53.920Z,1004.7
2017-05-19T04:33:53.859Z,1004.7
2017-05-19T04:34:53.799Z,1004.71
2017-05-19T04:35:53.735Z,1004.77
2017-05-19T04:36:53.675Z,1004.75
2017-05-19T04:37:53.612Z,1004.77
2017-05-19T04:38:53.550Z,1004.78
2017-05-19T04:39:53.491Z,1004.77
2017-05-19T04:40:53.433Z,1004.76
2017-05-19T04:41:53.365Z,1004.76
2017-05-19T04:42:53.304Z,1004.77
2017-05-19T04:43:53.245Z,1004.78
2017-05-19T04:44:53.182Z,1004.78
2017-05-19T04:45:53.121Z,1004.83
2017-05-19T04:46:53.062Z,1004.82
2017-05-19T04:47:52.999Z,1004.82
2017-05-19T04:48:52.936Z,1004.77
2017-05-19T04:49:52.875Z,1004.76
2017-05-19T04:50:52.813Z,1004.78
2017-05-19T04:51:52.752Z,1004.74
2017-05-19T04:52:52.690Z,1004.75
2017-05-19T04:53:52.629Z,1004.75
2017-05-19T04:54:52.567Z,1004.75
2017-05-19T04:55:52.505Z,1004.72
2017-05-19T04:56:52.444Z,1004.76
2017-05-19T04:57:52.385Z,1004.77
2017-05-19T04:58:52.322Z,1004.83
2017-05-19T04:59:52.260Z,1004.82
2017-05-19T05:00:52.198Z,1004.81
2017-05-19T05:01:52.137Z,1004.81
2017-05-19T05:02:52.075Z,1004.76
2017-05-19T05:03:52.013Z,1004.77
2017-05-19T05:04:51.952Z,1004.82
2017-05-19T05:05:51.891Z,1004.76
2017-05-19T05:06:51.829Z,1004.73
2017-05-19T05:07:51.767Z,1004.71
2017-05-19T05:08:51.706Z,1004.74
2017-05-19T05:09:51.644Z,1004.76
2017-05-19T05:10:51.583Z,1004.76
2017-05-19T05:11:51.521Z,1004.76
2017-05-19T05:12:51.460Z,1004.76
2017-05-19T05:13:51.399Z,1004.71
2017-05-19T05:14:51.337Z,1004.73
2017-05-19T05:15:51.275Z,1004.65
2017-05-19T05:16:51.214Z,1004.65
2017-05-19T05:17:51.152Z,1004.59
2017-05-19T05:18:51.090Z,1004.61
2017-05-19T05:19:51.029Z,1004.61
2017-05-19T05:20:50.968Z,1004.57
2017-05-19T05:21:50.906Z,1004.6
2017-05-19T05:22:50.854Z,1004.62
2017-05-19T05:23:50.783Z,1004.6
2017-05-19T05:24:50.722Z,1004.59
2017-05-19T05:25:50.659Z,1004.62
2017-05-19T05:26:50.599Z,1004.63
2017-05-19T05:27:50.538Z,1004.64
2017-05-19T05:28:50.475Z,1004.68
2017-05-19T05:29:50.415Z,1004.65
2017-05-19T05:30:50.352Z,1004.69
2017-05-19T05:31:50.291Z,1004.67
2017-05-19T05:32:50.229Z,1004.59
2017-05-19T05:33:50.167Z,1004.63
2017-05-19T05:34:50.106Z,1004.61
2017-05-19T05:35:50.045Z,1004.65
2017-05-19T05:36:49.982Z,1004.65
2017-05-19T05:37:49.921Z,1004.65
2017-05-19T05:38:49.860Z,1004.64
2017-05-19T05:39:49.797Z,1004.66
2017-05-19T05:40:49.736Z,1004.67
2017-05-19T05:41:49.674Z,1004.63
2017-05-19T05:42:49.614Z,1004.64
2017-05-19T05:43:49.552Z,1004.65
2017-05-19T05:44:49.490Z,1004.63
2017-05-19T05:45:49.428Z,1004.63
2017-05-19T05:46:49.367Z,1004.65
2017-05-19T05:47:49.304Z,1004.71
2017-05-19T05:48:49.250Z,1004.71
2017-05-19T05:49:49.183Z,1004.69
2017-05-19T05:50:49.120Z,1004.74
2017-05-19T05:51:49.060Z,1004.72
2017-05-19T05:52:49.006Z,1004.72
2017-05-19T05:53:48.937Z,1004.71
2017-05-19T05:54:48.874Z,1004.71
2017-05-19T05:55:48.813Z,1004.71
2017-05-19T05:56:48.751Z,1004.75
2017-05-19T05:57:48.689Z,1004.75
2017-05-19T05:58:48.628Z,1004.72
2017-05-19T05:59:48.566Z,1004.7
2017-05-19T06:00:48.505Z,1004.7
2017-05-19T06:01:48.445Z,1004.63
2017-05-19T06:02:48.382Z,1004.66
2017-05-19T06:03:48.319Z,1004.65
2017-05-19T06:04:48.260Z,1004.64
2017-05-19T06:05:48.195Z,1004.7
2017-05-19T06:06:48.139Z,1004.69
2017-05-19T06:07:48.074Z,1004.7
2017-05-19T06:08:48.011Z,1004.68
2017-05-19T06:09:47.950Z,1004.67
2017-05-19T06:10:47.888Z,1004.65
2017-05-19T06:11:47.826Z,1004.63
2017-05-19T06:12:47.764Z,1004.61
2017-05-19T06:13:47.706Z,1004.61
2017-05-19T06:14:47.641Z,1004.59
2017-05-19T06:15:47.580Z,1004.6
2017-05-19T06:16:47.518Z,1004.6
2017-05-19T06:17:47.457Z,1004.63
2017-05-19T06:18:47.395Z,1004.58
2017-05-19T06:19:47.335Z,1004.59
2017-05-19T06:20:47.273Z,1004.59
2017-05-19T06:21:47.211Z,1004.56
2017-05-19T06:22:47.150Z,1004.6
2017-05-19T06:23:47.087Z,1004.59
2017-05-19T06:24:47.026Z,1004.65
2017-05-19T06:25:46.965Z,1004.62
2017-05-19T06:26:46.903Z,1004.6
2017-05-19T06:27:46.841Z,1004.59
2017-05-19T06:28:46.780Z,1004.6
2017-05-19T06:29:46.718Z,1004.55
2017-05-19T06:30:46.656Z,1004.54
2017-05-19T06:31:46.594Z,1004.55
2017-05-19T06:32:46.533Z,1004.55
2017-05-19T06:33:46.471Z,1004.5
2017-05-19T06:34:46.408Z,1004.54
2017-05-19T06:35:46.348Z,1004.55
2017-05-19T06:36:46.286Z,1004.57
2017-05-19T06:37:46.240Z,1004.61
2017-05-19T06:38:46.163Z,1004.57
2017-05-19T06:39:46.102Z,1004.59
2017-05-19T06:40:46.040Z,1004.54
2017-05-19T06:41:45.978Z,1004.57
2017-05-19T06:42:45.916Z,1004.56
2017-05-19T06:43:46.067Z,1004.56
2017-05-19T06:44:45.800Z,1004.59
2017-05-19T06:45:45.731Z,1004.56
2017-05-19T06:46:45.670Z,1004.57
2017-05-19T06:47:45.608Z,1004.59
2017-05-19T06:48:45.546Z,1004.57
2017-05-19T06:49:45.485Z,1004.61
2017-05-19T06:50:45.425Z,1004.61
2017-05-19T06:51:45.361Z,1004.62
2017-05-19T06:52:45.299Z,1004.58
2017-05-19T06:53:45.238Z,1004.58
2017-05-19T06:54:45.177Z,1004.64
2017-05-19T06:55:45.115Z,1004.61
2017-05-19T06:56:45.053Z,1004.6
2017-05-19T06:57:44.991Z,1004.55
2017-05-19T06:58:44.930Z,1004.6
2017-05-19T06:59:44.869Z,1004.55
2017-05-19T07:00:44.807Z,1004.53
2017-05-19T07:01:44.745Z,1004.54
2017-05-19T07:02:44.683Z,1004.54
2017-05-19T07:03:44.621Z,1004.54
2017-05-19T07:04:44.560Z,1004.49
2017-05-19T07:05:44.498Z,1004.53
2017-05-19T07:06:44.437Z,1004.51
2017-05-19T07:07:44.376Z,1004.5
2017-05-19T07:08:44.313Z,1004.5
2017-05-19T07:09:44.257Z,1004.49
2017-05-19T07:10:44.190Z,1004.49
2017-05-19T07:11:44.128Z,1004.48
2017-05-19T07:12:44.066Z,1004.44
2017-05-19T07:13:44.005Z,1004.45
2017-05-19T07:14:43.944Z,1004.45
2017-05-19T07:15:43.882Z,1004.44
2017-05-19T07:16:43.820Z,1004.45
2017-05-19T07:17:43.760Z,1004.41
2017-05-19T07:18:43.699Z,1004.4
2017-05-19T07:19:43.635Z,1004.4
2017-05-19T07:20:43.574Z,1004.41
2017-05-19T07:21:43.515Z,1004.38
2017-05-19T07:22:43.450Z,1004.38
2017-05-19T07:23:43.427Z,1004.41
2017-05-19T07:24:43.327Z,1004.41
2017-05-19T07:25:43.266Z,1004.38
2017-05-19T07:26:43.204Z,1004.4
2017-05-19T07:27:43.142Z,1004.43
2017-05-19T07:28:43.082Z,1004.39
2017-05-19T07:29:43.019Z,1004.41
2017-05-19T07:30:42.957Z,1004.35
2017-05-19T07:31:42.897Z,1004.38
2017-05-19T07:32:42.835Z,1004.37
2017-05-19T07:33:42.772Z,1004.37
2017-05-19T07:34:42.711Z,1004.39
2017-05-19T07:35:42.950Z,1004.35
2017-05-19T07:36:42.586Z,1004.34
2017-05-19T07:37:42.525Z,1004.34
2017-05-19T07:38:42.464Z,1004.28
2017-05-19T07:39:42.403Z,1004.29
2017-05-19T07:40:42.590Z,1004.28
2017-05-19T07:41:42.281Z,1004.25
2017-05-19T07:42:42.218Z,1004.27
2017-05-19T07:43:42.156Z,1004.2
2017-05-19T07:44:42.093Z,1004.2
2017-05-19T07:45:42.132Z,1004.2
2017-05-19T07:46:41.971Z,1004.19
2017-05-19T07:47:41.915Z,1004.21
2017-05-19T07:48:41.848Z,1004.2
2017-05-19T07:49:41.786Z,1004.19
2017-05-19T07:50:41.974Z,1004.21
2017-05-19T07:51:41.662Z,1004.17
2017-05-19T07:52:41.601Z,1004.24
2017-05-19T07:53:41.547Z,1004.18
2017-05-19T07:54:41.480Z,1004.14
2017-05-19T07:55:41.418Z,1004.16
2017-05-19T07:56:41.355Z,1004.16
2017-05-19T07:57:41.308Z,1004.14
2017-05-19T07:58:41.232Z,1004.14
2017-05-19T07:59:41.170Z,1004.15
2017-05-19T08:00:41.117Z,1004.12
2017-05-19T08:01:41.057Z,1004.14
2017-05-19T08:02:40.985Z,1004.17
2017-05-19T08:03:40.924Z,1004.14
2017-05-19T08:04:40.862Z,1004.14
2017-05-19T08:05:40.807Z,1004.06
2017-05-19T08:06:40.741Z,1004.07
2017-05-19T08:07:40.678Z,1004.09
2017-05-19T08:08:40.617Z,1004.07
2017-05-19T08:09:40.559Z,1004.06
2017-05-19T08:10:40.492Z,1004.04
2017-05-19T08:11:40.432Z,1004.01
2017-05-19T08:12:40.371Z,1004
2017-05-19T08:13:40.307Z,1004
2017-05-19T08:14:40.246Z,1004
2017-05-19T08:15:40.186Z,1003.99
2017-05-19T08:16:40.123Z,1003.98
2017-05-19T08:17:40.061Z,1003.97
2017-05-19T08:18:40.002Z,1003.98
2017-05-19T08:19:39.938Z,1003.98
2017-05-19T08:20:39.877Z,1003.95
2017-05-19T08:21:39.814Z,1003.96
2017-05-19T08:22:39.753Z,1003.97
2017-05-19T08:23:39.691Z,1003.92
2017-05-19T08:24:39.629Z,1003.95
2017-05-19T08:25:39.568Z,1003.96
2017-05-19T08:26:39.507Z,1003.95
2017-05-19T08:27:39.445Z,1003.97
2017-05-19T08:28:39.384Z,1003.95
2017-05-19T08:29:39.323Z,1003.93
2017-05-19T08:30:39.261Z,1003.93
2017-05-19T08:31:39.199Z,1003.93
2017-05-19T08:32:39.137Z,1003.91
2017-05-19T08:33:39.081Z,1003.93
2017-05-19T08:34:39.015Z,1003.89
2017-05-19T08:35:38.953Z,1003.94
2017-05-19T08:36:38.891Z,1003.95
2017-05-19T08:37:38.830Z,1003.95
2017-05-19T08:38:38.768Z,1003.97
2017-05-19T08:39:38.710Z,1003.96
2017-05-19T08:40:38.666Z,1003.95
2017-05-19T08:41:38.584Z,1003.96
2017-05-19T08:42:38.521Z,1003.96
2017-05-19T08:43:38.460Z,1003.96
2017-05-19T08:44:38.401Z,1003.97
2017-05-19T08:45:38.339Z,1003.92
2017-05-19T08:46:38.275Z,1003.97
2017-05-19T08:47:38.215Z,1003.91
2017-05-19T08:48:38.153Z,1003.93
2017-05-19T08:49:38.090Z,1003.93
2017-05-19T08:50:38.029Z,1003.91
2017-05-19T08:51:37.967Z,1003.89
2017-05-19T08:52:37.907Z,1003.86
2017-05-19T08:53:37.844Z,1003.83
2017-05-19T08:54:37.783Z,1003.87
2017-05-19T08:55:37.722Z,1003.85
2017-05-19T08:56:37.660Z,1003.78
2017-05-19T08:57:37.598Z,1003.77
2017-05-19T08:58:37.537Z,1003.85
2017-05-19T08:59:37.476Z,1003.76
2017-05-19T09:00:37.415Z,1003.8
2017-05-19T09:01:37.352Z,1003.82
2017-05-19T09:02:37.291Z,1003.79
2017-05-19T09:03:37.230Z,1003.81
2017-05-19T09:04:37.167Z,1003.76
2017-05-19T09:05:37.106Z,1003.84
2017-05-19T09:06:37.044Z,1003.76
2017-05-19T09:07:36.983Z,1003.78
2017-05-19T09:08:36.928Z,1003.76
2017-05-19T09:09:36.859Z,1003.75
2017-05-19T09:10:36.799Z,1003.78
2017-05-19T09:11:36.738Z,1003.74
2017-05-19T09:12:36.675Z,1003.77
2017-05-19T09:13:36.615Z,1003.75
2017-05-19T09:14:36.558Z,1003.75
2017-05-19T09:15:36.490Z,1003.76
2017-05-19T09:16:36.430Z,1003.69
2017-05-19T09:17:36.368Z,1003.74
2017-05-19T09:18:36.308Z,1003.76
2017-05-19T09:19:36.244Z,1003.8
2017-05-19T09:20:36.183Z,1003.8
2017-05-19T09:21:36.122Z,1003.75
2017-05-19T09:22:36.059Z,1003.77
2017-05-19T09:23:35.999Z,1003.73
2017-05-19T09:24:35.936Z,1003.73
2017-05-19T09:25:35.876Z,1003.72
2017-05-19T09:26:35.814Z,1003.72
2017-05-19T09:27:35.754Z,1003.68
2017-05-19T09:28:35.692Z,1003.73
2017-05-19T09:29:35.632Z,1003.69
2017-05-19T09:30:35.569Z,1003.71
2017-05-19T09:31:35.507Z,1003.71
2017-05-19T09:32:35.447Z,1003.7
2017-05-19T09:33:35.389Z,1003.75
2017-05-19T09:34:35.323Z,1003.69
2017-05-19T09:35:35.262Z,1003.7
2017-05-19T09:36:35.200Z,1003.7
2017-05-19T09:37:35.139Z,1003.68
2017-05-19T09:38:35.078Z,1003.69
2017-05-19T09:39:35.017Z,1003.69
2017-05-19T09:40:34.954Z,1003.66
2017-05-19T09:41:34.895Z,1003.66
2017-05-19T09:42:34.831Z,1003.65
2017-05-19T09:43:34.771Z,1003.63
2017-05-19T09:44:34.708Z,1003.66
2017-05-19T09:45:34.647Z,1003.64
2017-05-19T09:46:34.585Z,1003.56
2017-05-19T09:47:34.524Z,1003.64
2017-05-19T09:48:34.462Z,1003.61
2017-05-19T09:49:34.401Z,1003.61
2017-05-19T09:50:34.491Z,1003.62
2017-05-19T09:51:34.278Z,1003.57
2017-05-19T09:52:34.220Z,1003.65
2017-05-19T09:53:34.156Z,1003.62
2017-05-19T09:54:34.095Z,1003.61
2017-05-19T09:55:34.282Z,1003.58
2017-05-19T09:56:33.971Z,1003.58
2017-05-19T09:57:33.914Z,1003.54
2017-05-19T09:58:33.849Z,1003.48
2017-05-19T09:59:33.786Z,1003.51
2017-05-19T10:00:33.725Z,1003.5
2017-05-19T10:01:33.664Z,1003.52
2017-05-19T10:02:33.602Z,1003.52
2017-05-19T10:03:33.541Z,1003.56
2017-05-19T10:04:33.479Z,1003.57
2017-05-19T10:05:33.418Z,1003.59
2017-05-19T10:06:33.355Z,1003.52
2017-05-19T10:07:33.295Z,1003.46
2017-05-19T10:08:33.235Z,1003.55
2017-05-19T10:09:33.175Z,1003.44
2017-05-19T10:10:33.111Z,1003.43
2017-05-19T10:11:33.054Z,1003.46
2017-05-19T10:12:32.988Z,1003.42
2017-05-19T10:13:32.927Z,1003.41
2017-05-19T10:14:32.866Z,1003.42
2017-05-19T10:15:32.806Z,1003.41
2017-05-19T10:16:32.743Z,1003.38
2017-05-19T10:17:32.682Z,1003.36
2017-05-19T10:18:32.620Z,1003.36
2017-05-19T10:19:32.558Z,1003.39
2017-05-19T10:20:32.497Z,1003.36
2017-05-19T10:21:32.446Z,1003.33
2017-05-19T10:22:32.376Z,1003.33
2017-05-19T10:23:32.315Z,1003.29
2017-05-19T10:24:32.254Z,1003.3
2017-05-19T10:25:32.191Z,1003.35
2017-05-19T10:26:32.131Z,1003.25
2017-05-19T10:27:32.074Z,1003.28
2017-05-19T10:28:32.007Z,1003.32
2017-05-19T10:29:31.946Z,1003.32
2017-05-19T10:30:31.885Z,1003.34
2017-05-19T10:31:31.823Z,1003.28
2017-05-19T10:32:31.762Z,1003.23
2017-05-19T10:33:31.701Z,1003.34
2017-05-19T10:34:31.641Z,1003.29
2017-05-19T10:35:31.579Z,1003.23
2017-05-19T10:36:31.519Z,1003.23
2017-05-19T10:37:31.458Z,1003.23
2017-05-19T10:38:31.395Z,1003.28
2017-05-19T10:39:31.333Z,1003.29
2017-05-19T10:40:31.273Z,1003.26
2017-05-19T10:41:31.212Z,1003.32
2017-05-19T10:42:31.151Z,1003.28
2017-05-19T10:43:31.091Z,1003.24
2017-05-19T10:44:31.030Z,1003.25
2017-05-19T10:45:30.971Z,1003.21
2017-05-19T10:46:30.905Z,1003.26
2017-05-19T10:47:30.845Z,1003.26
2017-05-19T10:48:30.785Z,1003.25
2017-05-19T10:49:30.723Z,1003.22
2017-05-19T10:50:30.663Z,1003.2
2017-05-19T10:51:30.602Z,1003.19
2017-05-19T10:52:30.541Z,1003.18
2017-05-19T10:53:30.478Z,1003.18
2017-05-19T10:54:30.418Z,1003.19
2017-05-19T10:55:30.357Z,1003.21
2017-05-19T10:56:30.297Z,1003.21
2017-05-19T10:57:30.235Z,1003.19
2017-05-19T10:58:30.174Z,1003.18
2017-05-19T10:59:30.113Z,1003.16
2017-05-19T11:00:30.053Z,1003.18
2017-05-19T11:01:29.994Z,1003.19
2017-05-19T11:02:29.932Z,1003.18
2017-05-19T11:03:29.870Z,1003.19
2017-05-19T11:04:29.809Z,1003.12
2017-05-19T11:05:29.749Z,1003.11
2017-05-19T11:06:29.688Z,1003.1
2017-05-19T11:07:29.630Z,1003.08
2017-05-19T11:08:29.565Z,1003.09
2017-05-19T11:09:29.505Z,1003.09
2017-05-19T11:10:29.746Z,1003.05
2017-05-19T11:11:29.383Z,1003.04
2017-05-19T11:12:29.321Z,1003.05
2017-05-19T11:13:29.261Z,1003.03
2017-05-19T11:14:29.200Z,1003.06
2017-05-19T11:15:29.141Z,1003.05
2017-05-19T11:16:29.080Z,1003.04
2017-05-19T11:17:29.019Z,1003.1
2017-05-19T11:18:28.958Z,1003.06
2017-05-19T11:19:28.897Z,1003.02
2017-05-19T11:20:28.986Z,1003.04
2017-05-19T11:21:28.776Z,1003.02
2017-05-19T11:22:28.716Z,1003.01
2017-05-19T11:23:28.653Z,1002.96
2017-05-19T11:24:28.592Z,1003
2017-05-19T11:25:28.538Z,1002.99
2017-05-19T11:26:28.470Z,1002.98
2017-05-19T11:27:28.411Z,1002.97
2017-05-19T11:28:28.350Z,1002.94
2017-05-19T11:29:28.289Z,1002.97
2017-05-19T11:30:28.228Z,1002.88
2017-05-19T11:31:28.179Z,1002.9
2017-05-19T11:32:28.120Z,1002.88
2017-05-19T11:33:28.046Z,1002.93
2017-05-19T11:34:27.987Z,1002.98
2017-05-19T11:35:27.925Z,1002.87
2017-05-19T11:36:27.864Z,1002.95
2017-05-19T11:37:27.804Z,1002.91
2017-05-19T11:38:27.742Z,1002.88
2017-05-19T11:39:27.682Z,1002.86
2017-05-19T11:40:27.721Z,1002.86
2017-05-19T11:41:27.560Z,1002.82
2017-05-19T11:42:27.501Z,1002.86
2017-05-19T11:43:27.449Z,1002.84
2017-05-19T11:44:27.380Z,1002.89
2017-05-19T11:45:27.499Z,1002.87
2017-05-19T11:46:27.289Z,1002.81
2017-05-19T11:47:27.208Z,1002.8
2017-05-19T11:48:27.168Z,1002.81
2017-05-19T11:49:27.102Z,1002.82
2017-05-19T11:50:27.026Z,1002.8
2017-05-19T11:51:26.954Z,1002.75
2017-05-19T11:52:26.896Z,1002.8
2017-05-19T11:53:26.832Z,1002.82
2017-05-19T11:54:26.772Z,1002.8
2017-05-19T11:55:26.763Z,1002.8
2017-05-19T11:56:26.953Z,1002.8
2017-05-19T11:57:26.590Z,1002.81
2017-05-19T11:58:26.582Z,1002.78
2017-05-19T11:59:26.474Z,1002.75
2017-05-19T12:00:26.410Z,1002.8
2017-05-19T12:01:26.349Z,1002.77
2017-05-19T12:02:26.338Z,1002.78
2017-05-19T12:03:26.227Z,1002.79
2017-05-19T12:04:26.210Z,1002.74
2017-05-19T12:05:26.105Z,1002.79
2017-05-19T12:06:26.045Z,1002.81
2017-05-19T12:07:25.984Z,1002.76
2017-05-19T12:08:25.924Z,1002.77